sensor_id;sensor_type;location;lat;lon;timestamp;pressure;altitude;pressure_sealevel;temperature;humidity
77366;BME280;66430;50.182;11.704;2023-03-01T00:00:12;95529.96;;;-1.12;37.66
77366;BME280;66430;50.182;11.704;2023-03-01T00:02:35;95526.89;;;-1.07;37.18
77366;BME280;66430;50.182;11.704;2023-03-01T00:05:02;95523.13;;;-0.93;36.88
77366;BME280;66430;50.182;11.704;2023-03-01T00:07:26;95520.45;;;-0.95;36.74
77366;BME280;66430;50.182;11.704;2023-03-01T00:09:51;95519.14;;;-0.79;36.59
77366;BME280;66430;50.182;11.704;2023-03-01T00:12:17;95520.80;;;-0.79;36.51
77366;BME280;66430;50.182;11.704;2023-03-01T00:14:42;95526.24;;;-0.72;36.44
77366;BME280;66430;50.182;11.704;2023-03-01T00:17:08;95526.77;;;-0.70;36.41
77366;BME280;66430;50.182;11.704;2023-03-01T00:19:33;95520.09;;;-0.68;36.17
77366;BME280;66430;50.182;11.704;2023-03-01T00:21:59;95519.20;;;-0.70;36.30
77366;BME280;66430;50.182;11.704;2023-03-01T00:24:24;95516.57;;;-0.39;36.20
77366;BME280;66430;50.182;11.704;2023-03-01T00:26:53;95519.56;;;-0.68;36.11
77366;BME280;66430;50.182;11.704;2023-03-01T00:29:15;95517.56;;;-0.33;36.43
77366;BME280;66430;50.182;11.704;2023-03-01T00:31:39;95514.78;;;-0.77;36.33
77366;BME280;66430;50.182;11.704;2023-03-01T00:34:05;95513.59;;;-0.66;36.15
77366;BME280;66430;50.182;11.704;2023-03-01T00:36:35;95509.84;;;-0.62;36.10
77366;BME280;66430;50.182;11.704;2023-03-01T00:38:57;95514.19;;;-0.63;36.00
77366;BME280;66430;50.182;11.704;2023-03-01T00:41:24;95516.81;;;-0.51;35.82
77366;BME280;66430;50.182;11.704;2023-03-01T00:43:49;95513.16;;;-0.57;35.87
77366;BME280;66430;50.182;11.704;2023-03-01T00:46:16;95509.97;;;-0.52;35.72
77366;BME280;66430;50.182;11.704;2023-03-01T00:48:39;95508.14;;;-0.91;35.89
77366;BME280;66430;50.182;11.704;2023-03-01T00:51:05;95508.78;;;-0.84;35.78
77366;BME280;66430;50.182;11.704;2023-03-01T00:53:30;95509.25;;;-1.12;36.00
77366;BME280;66430;50.182;11.704;2023-03-01T00:55:57;95504.87;;;-1.29;36.42
77366;BME280;66430;50.182;11.704;2023-03-01T00:58:20;95501.52;;;-1.61;37.46
77366;BME280;66430;50.182;11.704;2023-03-01T01:00:46;95500.50;;;-1.77;38.34
77366;BME280;66430;50.182;11.704;2023-03-01T01:03:11;95490.72;;;-1.86;38.77
77366;BME280;66430;50.182;11.704;2023-03-01T01:05:37;95491.11;;;-2.48;39.49
77366;BME280;66430;50.182;11.704;2023-03-01T01:08:02;95485.33;;;-1.77;38.49
77366;BME280;66430;50.182;11.704;2023-03-01T01:10:28;95485.57;;;-1.63;38.07
77366;BME280;66430;50.182;11.704;2023-03-01T01:12:53;95482.25;;;-1.33;37.56
77366;BME280;66430;50.182;11.704;2023-03-01T01:15:18;95478.25;;;-1.10;37.18
77366;BME280;66430;50.182;11.704;2023-03-01T01:17:44;95479.07;;;-1.01;36.99
77366;BME280;66430;50.182;11.704;2023-03-01T01:20:10;95477.20;;;-1.35;36.81
77366;BME280;66430;50.182;11.704;2023-03-01T01:22:33;95471.31;;;-0.76;36.47
77366;BME280;66430;50.182;11.704;2023-03-01T01:24:59;95470.27;;;-1.24;36.38
77366;BME280;66430;50.182;11.704;2023-03-01T01:27:24;95470.37;;;-1.10;36.74
77366;BME280;66430;50.182;11.704;2023-03-01T01:29:50;95468.90;;;-1.10;36.87
77366;BME280;66430;50.182;11.704;2023-03-01T01:32:16;95464.94;;;-1.21;37.28
77366;BME280;66430;50.182;11.704;2023-03-01T01:34:41;95463.18;;;-1.74;37.69
77366;BME280;66430;50.182;11.704;2023-03-01T01:37:10;95461.32;;;-1.49;38.06
77366;BME280;66430;50.182;11.704;2023-03-01T01:39:32;95465.81;;;-1.79;38.68
77366;BME280;66430;50.182;11.704;2023-03-01T01:41:58;95467.88;;;-2.19;38.79
77366;BME280;66430;50.182;11.704;2023-03-01T01:44:26;95463.20;;;-1.92;38.68
77366;BME280;66430;50.182;11.704;2023-03-01T01:46:51;95459.39;;;-1.76;38.56
77366;BME280;66430;50.182;11.704;2023-03-01T01:49:24;95457.91;;;-2.05;38.79
77366;BME280;66430;50.182;11.704;2023-03-01T01:51:43;95455.19;;;-2.07;39.05
77366;BME280;66430;50.182;11.704;2023-03-01T01:54:08;95446.44;;;-1.92;38.74
77366;BME280;66430;50.182;11.704;2023-03-01T01:56:30;95442.43;;;-1.78;38.55
77366;BME280;66430;50.182;11.704;2023-03-01T01:58:55;95442.09;;;-1.52;38.11
77366;BME280;66430;50.182;11.704;2023-03-01T02:01:22;95436.72;;;-1.52;38.05
77366;BME280;66430;50.182;11.704;2023-03-01T02:03:47;95434.95;;;-1.40;38.35
77366;BME280;66430;50.182;11.704;2023-03-01T02:06:19;95436.24;;;-1.48;38.19
77366;BME280;66430;50.182;11.704;2023-03-01T02:08:38;95429.52;;;-1.70;38.43
77366;BME280;66430;50.182;11.704;2023-03-01T02:11:02;95434.71;;;-1.34;37.84
77366;BME280;66430;50.182;11.704;2023-03-01T02:13:28;95433.30;;;-1.22;37.66
77366;BME280;66430;50.182;11.704;2023-03-01T02:15:53;95433.12;;;-1.17;37.67
77366;BME280;66430;50.182;11.704;2023-03-01T02:18:21;95431.13;;;-1.94;38.00
77366;BME280;66430;50.182;11.704;2023-03-01T02:20:53;95425.00;;;-2.01;38.79
77366;BME280;66430;50.182;11.704;2023-03-01T02:23:10;95427.07;;;-1.40;38.09
77366;BME280;66430;50.182;11.704;2023-03-01T02:25:39;95419.38;;;-1.68;38.11
77366;BME280;66430;50.182;11.704;2023-03-01T02:28:07;95418.35;;;-1.43;38.21
77366;BME280;66430;50.182;11.704;2023-03-01T02:30:27;95414.89;;;-1.65;38.51
77366;BME280;66430;50.182;11.704;2023-03-01T02:32:53;95410.22;;;-1.77;38.52
77366;BME280;66430;50.182;11.704;2023-03-01T02:35:19;95411.82;;;-1.93;38.47
77366;BME280;66430;50.182;11.704;2023-03-01T02:37:44;95410.59;;;-1.86;38.88
77366;BME280;66430;50.182;11.704;2023-03-01T02:40:13;95408.92;;;-1.96;39.01
77366;BME280;66430;50.182;11.704;2023-03-01T02:42:39;95410.47;;;-2.17;39.56
77366;BME280;66430;50.182;11.704;2023-03-01T02:45:02;95410.03;;;-2.31;39.73
77366;BME280;66430;50.182;11.704;2023-03-01T02:47:26;95401.08;;;-2.21;39.67
77366;BME280;66430;50.182;11.704;2023-03-01T02:49:51;95396.47;;;-2.02;39.53
77366;BME280;66430;50.182;11.704;2023-03-01T02:52:28;95393.37;;;-2.16;39.34
77366;BME280;66430;50.182;11.704;2023-03-01T02:54:48;95393.97;;;-2.17;39.25
77366;BME280;66430;50.182;11.704;2023-03-01T02:57:08;95392.69;;;-2.19;39.22
77366;BME280;66430;50.182;11.704;2023-03-01T02:59:35;95399.64;;;-2.33;40.16
77366;BME280;66430;50.182;11.704;2023-03-01T03:01:58;95401.70;;;-2.71;40.76
77366;BME280;66430;50.182;11.704;2023-03-01T03:04:23;95402.80;;;-3.01;41.27
77366;BME280;66430;50.182;11.704;2023-03-01T03:06:50;95398.58;;;-2.99;41.46
77366;BME280;66430;50.182;11.704;2023-03-01T03:09:15;95394.14;;;-3.52;42.13
77366;BME280;66430;50.182;11.704;2023-03-01T03:11:39;95388.66;;;-3.47;42.59
77366;BME280;66430;50.182;11.704;2023-03-01T03:14:07;95383.85;;;-3.28;42.84
77366;BME280;66430;50.182;11.704;2023-03-01T03:16:30;95380.01;;;-3.84;43.14
77366;BME280;66430;50.182;11.704;2023-03-01T03:18:56;95379.44;;;-3.83;43.45
77366;BME280;66430;50.182;11.704;2023-03-01T03:21:21;95380.07;;;-3.84;43.49
77366;BME280;66430;50.182;11.704;2023-03-01T03:23:46;95381.14;;;-3.92;43.72
77366;BME280;66430;50.182;11.704;2023-03-01T03:26:13;95380.93;;;-3.99;43.44
77366;BME280;66430;50.182;11.704;2023-03-01T03:28:37;95383.03;;;-3.81;43.51
77366;BME280;66430;50.182;11.704;2023-03-01T03:31:05;95379.87;;;-3.84;43.63
77366;BME280;66430;50.182;11.704;2023-03-01T03:33:29;95377.34;;;-3.71;43.34
77366;BME280;66430;50.182;11.704;2023-03-01T03:35:54;95380.36;;;-3.75;43.46
77366;BME280;66430;50.182;11.704;2023-03-01T03:38:20;95376.55;;;-3.68;43.01
77366;BME280;66430;50.182;11.704;2023-03-01T03:40:49;95380.46;;;-3.72;43.05
77366;BME280;66430;50.182;11.704;2023-03-01T03:43:13;95380.48;;;-3.64;43.11
77366;BME280;66430;50.182;11.704;2023-03-01T03:45:36;95378.08;;;-3.82;43.12
77366;BME280;66430;50.182;11.704;2023-03-01T03:48:02;95378.73;;;-3.68;43.06
77366;BME280;66430;50.182;11.704;2023-03-01T03:50:27;95376.98;;;-3.94;43.53
77366;BME280;66430;50.182;11.704;2023-03-01T03:52:52;95369.75;;;-3.62;42.95
77366;BME280;66430;50.182;11.704;2023-03-01T03:55:17;95375.87;;;-3.70;42.83
77366;BME280;66430;50.182;11.704;2023-03-01T03:57:43;95382.86;;;-4.28;43.28
77366;BME280;66430;50.182;11.704;2023-03-01T04:00:11;95379.66;;;-4.24;43.76
77366;BME280;66430;50.182;11.704;2023-03-01T04:02:33;95373.63;;;-4.00;44.01
77366;BME280;66430;50.182;11.704;2023-03-01T04:04:59;95372.76;;;-4.08;44.62
77366;BME280;66430;50.182;11.704;2023-03-01T04:07:24;95371.15;;;-3.87;44.19
77366;BME280;66430;50.182;11.704;2023-03-01T04:09:49;95376.31;;;-4.19;44.24
77366;BME280;66430;50.182;11.704;2023-03-01T04:12:14;95375.73;;;-4.07;44.15
77366;BME280;66430;50.182;11.704;2023-03-01T04:14:41;95377.42;;;-4.50;43.87
77366;BME280;66430;50.182;11.704;2023-03-01T04:17:05;95379.11;;;-4.06;43.51
77366;BME280;66430;50.182;11.704;2023-03-01T04:19:31;95380.38;;;-4.15;43.77
77366;BME280;66430;50.182;11.704;2023-03-01T04:21:58;95382.13;;;-4.01;43.42
77366;BME280;66430;50.182;11.704;2023-03-01T04:24:26;95380.69;;;-4.26;43.86
77366;BME280;66430;50.182;11.704;2023-03-01T04:26:48;95378.91;;;-4.40;43.90
77366;BME280;66430;50.182;11.704;2023-03-01T04:29:13;95381.71;;;-4.42;44.65
77366;BME280;66430;50.182;11.704;2023-03-01T04:31:38;95379.54;;;-4.06;44.47
77366;BME280;66430;50.182;11.704;2023-03-01T04:34:03;95377.77;;;-4.07;44.13
77366;BME280;66430;50.182;11.704;2023-03-01T04:36:29;95370.82;;;-4.10;44.12
77366;BME280;66430;50.182;11.704;2023-03-01T04:38:54;95368.48;;;-4.43;44.59
77366;BME280;66430;50.182;11.704;2023-03-01T04:41:22;95368.54;;;-4.24;44.68
77366;BME280;66430;50.182;11.704;2023-03-01T04:43:45;95367.37;;;-4.49;45.21
77366;BME280;66430;50.182;11.704;2023-03-01T04:46:13;95357.41;;;-4.26;45.07
77366;BME280;66430;50.182;11.704;2023-03-01T04:48:38;95350.55;;;-4.63;45.21
77366;BME280;66430;50.182;11.704;2023-03-01T04:51:02;95350.12;;;-4.17;45.06
77366;BME280;66430;50.182;11.704;2023-03-01T04:53:28;95351.20;;;-4.46;45.01
77366;BME280;66430;50.182;11.704;2023-03-01T04:55:54;95352.01;;;-4.47;45.54
77366;BME280;66430;50.182;11.704;2023-03-01T04:58:18;95357.71;;;-4.71;45.84
77366;BME280;66430;50.182;11.704;2023-03-01T05:00:45;95357.41;;;-4.61;46.33
77366;BME280;66430;50.182;11.704;2023-03-01T05:03:08;95362.53;;;-4.63;47.02
77366;BME280;66430;50.182;11.704;2023-03-01T05:05:36;95354.40;;;-5.15;47.37
77366;BME280;66430;50.182;11.704;2023-03-01T05:08:01;95347.99;;;-4.70;47.02
77366;BME280;66430;50.182;11.704;2023-03-01T05:10:26;95353.58;;;-4.77;47.21
77366;BME280;66430;50.182;11.704;2023-03-01T05:12:51;95352.44;;;-5.04;47.42
77366;BME280;66430;50.182;11.704;2023-03-01T05:15:16;95344.57;;;-5.12;46.92
77366;BME280;66430;50.182;11.704;2023-03-01T05:17:41;95343.74;;;-4.75;46.63
77366;BME280;66430;50.182;11.704;2023-03-01T05:20:07;95340.99;;;-4.60;46.13
77366;BME280;66430;50.182;11.704;2023-03-01T05:22:32;95344.89;;;-4.73;45.99
77366;BME280;66430;50.182;11.704;2023-03-01T05:24:57;95342.05;;;-4.61;46.74
77366;BME280;66430;50.182;11.704;2023-03-01T05:27:23;95340.10;;;-5.04;47.48
77366;BME280;66430;50.182;11.704;2023-03-01T05:29:49;95337.19;;;-5.03;46.47
77366;BME280;66430;50.182;11.704;2023-03-01T05:32:14;95341.67;;;-5.06;46.47
77366;BME280;66430;50.182;11.704;2023-03-01T05:34:39;95342.75;;;-4.93;46.06
77366;BME280;66430;50.182;11.704;2023-03-01T05:37:05;95343.97;;;-5.05;46.32
77366;BME280;66430;50.182;11.704;2023-03-01T05:39:31;95340.98;;;-5.05;46.42
77366;BME280;66430;50.182;11.704;2023-03-01T05:41:58;95341.67;;;-4.96;46.06
77366;BME280;66430;50.182;11.704;2023-03-01T05:44:23;95343.70;;;-4.89;45.96
77366;BME280;66430;50.182;11.704;2023-03-01T05:46:47;95333.49;;;-4.51;46.27
77366;BME280;66430;50.182;11.704;2023-03-01T05:49:13;95341.24;;;-4.84;46.41
77366;BME280;66430;50.182;11.704;2023-03-01T05:51:37;95338.17;;;-4.97;46.17
77366;BME280;66430;50.182;11.704;2023-03-01T05:54:03;95330.26;;;-4.76;46.34
77366;BME280;66430;50.182;11.704;2023-03-01T05:56:29;95332.13;;;-4.86;46.22
77366;BME280;66430;50.182;11.704;2023-03-01T05:58:54;95332.97;;;-5.01;46.37
77366;BME280;66430;50.182;11.704;2023-03-01T06:01:19;95335.12;;;-5.12;46.81
77366;BME280;66430;50.182;11.704;2023-03-01T06:03:44;95344.05;;;-4.70;46.90
77366;BME280;66430;50.182;11.704;2023-03-01T06:06:10;95342.82;;;-4.79;45.76
77366;BME280;66430;50.182;11.704;2023-03-01T06:08:36;95343.47;;;-4.70;45.83
77366;BME280;66430;50.182;11.704;2023-03-01T06:11:00;95345.04;;;-4.47;45.37
77366;BME280;66430;50.182;11.704;2023-03-01T06:13:26;95339.86;;;-4.54;45.60
77366;BME280;66430;50.182;11.704;2023-03-01T06:15:51;95346.24;;;-4.89;46.33
77366;BME280;66430;50.182;11.704;2023-03-01T06:18:17;95343.44;;;-5.26;46.72
77366;BME280;66430;50.182;11.704;2023-03-01T06:20:42;95346.94;;;-4.51;46.19
77366;BME280;66430;50.182;11.704;2023-03-01T06:23:07;95350.83;;;-4.71;47.11
77366;BME280;66430;50.182;11.704;2023-03-01T06:25:33;95347.01;;;-5.17;47.25
77366;BME280;66430;50.182;11.704;2023-03-01T06:27:57;95343.31;;;-4.84;46.89
77366;BME280;66430;50.182;11.704;2023-03-01T06:30:24;95336.53;;;-4.53;45.95
77366;BME280;66430;50.182;11.704;2023-03-01T06:32:48;95337.10;;;-4.31;46.05
77366;BME280;66430;50.182;11.704;2023-03-01T06:35:15;95333.89;;;-4.64;46.01
77366;BME280;66430;50.182;11.704;2023-03-01T06:37:41;95342.64;;;-4.83;46.63
77366;BME280;66430;50.182;11.704;2023-03-01T06:40:05;95338.27;;;-4.96;47.12
77366;BME280;66430;50.182;11.704;2023-03-01T06:42:30;95334.73;;;-4.52;46.77
77366;BME280;66430;50.182;11.704;2023-03-01T06:44:56;95343.18;;;-4.49;46.62
77366;BME280;66430;50.182;11.704;2023-03-01T06:47:21;95337.82;;;-4.75;46.85
77366;BME280;66430;50.182;11.704;2023-03-01T06:49:48;95338.65;;;-4.72;47.34
77366;BME280;66430;50.182;11.704;2023-03-01T06:52:12;95342.67;;;-4.86;47.77
77366;BME280;66430;50.182;11.704;2023-03-01T06:54:38;95348.07;;;-4.95;47.62
77366;BME280;66430;50.182;11.704;2023-03-01T06:57:03;95341.18;;;-4.98;47.59
77366;BME280;66430;50.182;11.704;2023-03-01T06:59:29;95341.10;;;-4.26;47.13
77366;BME280;66430;50.182;11.704;2023-03-01T07:01:54;95341.20;;;-4.77;47.14
77366;BME280;66430;50.182;11.704;2023-03-01T07:04:19;95339.17;;;-4.41;46.40
77366;BME280;66430;50.182;11.704;2023-03-01T07:06:44;95334.14;;;-3.94;45.91
77366;BME280;66430;50.182;11.704;2023-03-01T07:09:14;95336.61;;;-3.77;44.97
77366;BME280;66430;50.182;11.704;2023-03-01T07:11:34;95332.06;;;-3.92;45.13
77366;BME280;66430;50.182;11.704;2023-03-01T07:14:00;95328.31;;;-3.72;45.30
77366;BME280;66430;50.182;11.704;2023-03-01T07:16:26;95328.52;;;-3.76;44.97
77366;BME280;66430;50.182;11.704;2023-03-01T07:18:52;95332.73;;;-3.21;44.79
77366;BME280;66430;50.182;11.704;2023-03-01T07:21:17;95330.56;;;-4.00;45.47
77366;BME280;66430;50.182;11.704;2023-03-01T07:23:42;95329.86;;;-4.08;46.09
77366;BME280;66430;50.182;11.704;2023-03-01T07:26:07;95325.40;;;-3.93;45.80
77366;BME280;66430;50.182;11.704;2023-03-01T07:28:33;95319.87;;;-3.98;46.23
77366;BME280;66430;50.182;11.704;2023-03-01T07:31:01;95321.99;;;-3.69;45.51
77366;BME280;66430;50.182;11.704;2023-03-01T07:33:24;95319.33;;;-3.68;45.84
77366;BME280;66430;50.182;11.704;2023-03-01T07:35:55;95316.91;;;-3.60;45.78
77366;BME280;66430;50.182;11.704;2023-03-01T07:38:18;95312.70;;;-3.41;45.50
77366;BME280;66430;50.182;11.704;2023-03-01T07:40:40;95313.41;;;-3.31;45.00
77366;BME280;66430;50.182;11.704;2023-03-01T07:43:06;95313.19;;;-3.70;45.20
77366;BME280;66430;50.182;11.704;2023-03-01T07:45:32;95309.99;;;-3.50;45.08
77366;BME280;66430;50.182;11.704;2023-03-01T07:47:57;95307.70;;;-3.29;44.28
77366;BME280;66430;50.182;11.704;2023-03-01T07:50:23;95309.19;;;-3.10;43.43
77366;BME280;66430;50.182;11.704;2023-03-01T07:52:50;95305.92;;;-2.66;43.28
77366;BME280;66430;50.182;11.704;2023-03-01T07:55:14;95308.85;;;-2.78;42.97
77366;BME280;66430;50.182;11.704;2023-03-01T07:57:39;95311.94;;;-2.85;43.15
77366;BME280;66430;50.182;11.704;2023-03-01T08:00:06;95311.17;;;-2.55;42.66
77366;BME280;66430;50.182;11.704;2023-03-01T08:02:31;95311.58;;;-2.61;42.78
77366;BME280;66430;50.182;11.704;2023-03-01T08:04:57;95311.61;;;-2.65;42.43
77366;BME280;66430;50.182;11.704;2023-03-01T08:07:21;95310.62;;;-2.56;42.73
77366;BME280;66430;50.182;11.704;2023-03-01T08:09:48;95308.19;;;-2.66;43.11
77366;BME280;66430;50.182;11.704;2023-03-01T08:12:11;95317.38;;;-3.17;44.04
77366;BME280;66430;50.182;11.704;2023-03-01T08:14:37;95321.21;;;-3.38;45.78
77366;BME280;66430;50.182;11.704;2023-03-01T08:17:03;95323.62;;;-3.80;46.26
77366;BME280;66430;50.182;11.704;2023-03-01T08:19:28;95322.56;;;-3.91;46.86
77366;BME280;66430;50.182;11.704;2023-03-01T08:21:54;95310.67;;;-3.52;46.97
77366;BME280;66430;50.182;11.704;2023-03-01T08:24:19;95309.89;;;-3.67;45.84
77366;BME280;66430;50.182;11.704;2023-03-01T08:26:44;95300.96;;;-3.88;46.33
77366;BME280;66430;50.182;11.704;2023-03-01T08:29:11;95301.89;;;-3.73;46.42
77366;BME280;66430;50.182;11.704;2023-03-01T08:31:37;95290.92;;;-3.20;45.86
77366;BME280;66430;50.182;11.704;2023-03-01T08:34:04;95295.07;;;-3.34;45.95
77366;BME280;66430;50.182;11.704;2023-03-01T08:36:28;95306.51;;;-3.12;46.29
77366;BME280;66430;50.182;11.704;2023-03-01T08:38:53;95293.94;;;-3.61;47.04
77366;BME280;66430;50.182;11.704;2023-03-01T08:41:18;95280.00;;;-3.87;47.89
77366;BME280;66430;50.182;11.704;2023-03-01T08:43:43;95290.71;;;-3.66;47.50
77366;BME280;66430;50.182;11.704;2023-03-01T08:46:08;95286.19;;;-3.21;47.14
77366;BME280;66430;50.182;11.704;2023-03-01T08:48:34;95285.84;;;-3.80;47.61
77366;BME280;66430;50.182;11.704;2023-03-01T08:51:07;95275.59;;;-3.51;47.53
77366;BME280;66430;50.182;11.704;2023-03-01T08:53:26;95274.56;;;-3.38;46.83
77366;BME280;66430;50.182;11.704;2023-03-01T08:55:50;95277.41;;;-3.43;46.83
77366;BME280;66430;50.182;11.704;2023-03-01T08:58:15;95270.28;;;-3.13;47.04
77366;BME280;66430;50.182;11.704;2023-03-01T09:00:40;95269.96;;;-3.54;47.62
77366;BME280;66430;50.182;11.704;2023-03-01T09:03:06;95276.84;;;-3.11;47.60
77366;BME280;66430;50.182;11.704;2023-03-01T09:05:32;95276.87;;;-3.32;47.32
77366;BME280;66430;50.182;11.704;2023-03-01T09:07:57;95269.41;;;-3.64;48.51
77366;BME280;66430;50.182;11.704;2023-03-01T09:10:22;95270.20;;;-3.45;47.58
77366;BME280;66430;50.182;11.704;2023-03-01T09:12:47;95290.35;;;-3.87;48.76
77366;BME280;66430;50.182;11.704;2023-03-01T09:15:14;95277.65;;;-3.60;48.90
77366;BME280;66430;50.182;11.704;2023-03-01T09:17:38;95279.44;;;-3.44;48.65
77366;BME280;66430;50.182;11.704;2023-03-01T09:20:05;95277.68;;;-3.65;48.85
77366;BME280;66430;50.182;11.704;2023-03-01T09:22:29;95284.11;;;-3.81;49.92
77366;BME280;66430;50.182;11.704;2023-03-01T09:24:54;95275.29;;;-3.44;49.30
77366;BME280;66430;50.182;11.704;2023-03-01T09:27:20;95260.06;;;-2.86;48.45
77366;BME280;66430;50.182;11.704;2023-03-01T09:29:45;95263.87;;;-2.98;48.16
77366;BME280;66430;50.182;11.704;2023-03-01T09:32:11;95264.18;;;-3.35;47.95
77366;BME280;66430;50.182;11.704;2023-03-01T09:34:36;95266.90;;;-2.31;46.45
77366;BME280;66430;50.182;11.704;2023-03-01T09:37:02;95267.16;;;-2.27;46.08
77366;BME280;66430;50.182;11.704;2023-03-01T09:39:27;95270.72;;;-2.76;46.62
77366;BME280;66430;50.182;11.704;2023-03-01T09:41:58;95274.41;;;-2.95;46.75
77366;BME280;66430;50.182;11.704;2023-03-01T09:44:29;95263.44;;;-2.47;46.02
77366;BME280;66430;50.182;11.704;2023-03-01T09:46:45;95262.37;;;-2.26;45.75
77366;BME280;66430;50.182;11.704;2023-03-01T09:49:14;95260.61;;;-2.37;46.00
77366;BME280;66430;50.182;11.704;2023-03-01T09:51:36;95259.81;;;-2.44;46.34
77366;BME280;66430;50.182;11.704;2023-03-01T09:54:01;95262.30;;;-2.34;46.05
77366;BME280;66430;50.182;11.704;2023-03-01T09:56:32;95265.82;;;-1.93;44.95
77366;BME280;66430;50.182;11.704;2023-03-01T09:58:56;95269.31;;;-1.76;44.32
77366;BME280;66430;50.182;11.704;2023-03-01T10:01:27;95275.33;;;-1.92;45.72
77366;BME280;66430;50.182;11.704;2023-03-01T10:03:44;95274.78;;;-2.11;44.56
77366;BME280;66430;50.182;11.704;2023-03-01T10:06:13;95271.61;;;-1.84;44.81
77366;BME280;66430;50.182;11.704;2023-03-01T10:08:38;95262.55;;;-1.97;45.71
77366;BME280;66430;50.182;11.704;2023-03-01T10:10:59;95259.55;;;-2.41;47.14
77366;BME280;66430;50.182;11.704;2023-03-01T10:13:29;95262.68;;;-2.06;45.85
77366;BME280;66430;50.182;11.704;2023-03-01T10:15:53;95259.64;;;-2.54;47.62
77366;BME280;66430;50.182;11.704;2023-03-01T10:18:18;95241.69;;;-2.80;47.31
77366;BME280;66430;50.182;11.704;2023-03-01T10:20:46;95234.59;;;-2.65;47.09
77366;BME280;66430;50.182;11.704;2023-03-01T10:23:08;95231.36;;;-2.06;46.75
77366;BME280;66430;50.182;11.704;2023-03-01T10:25:44;95231.44;;;-1.99;45.57
77366;BME280;66430;50.182;11.704;2023-03-01T10:28:02;95231.75;;;-1.58;44.90
77366;BME280;66430;50.182;11.704;2023-03-01T10:30:32;95226.30;;;-1.70;45.57
77366;BME280;66430;50.182;11.704;2023-03-01T10:32:52;95228.13;;;-1.82;45.83
77366;BME280;66430;50.182;11.704;2023-03-01T10:35:18;95223.57;;;-1.80;45.35
77366;BME280;66430;50.182;11.704;2023-03-01T10:40:07;95233.53;;;-1.79;45.98
77366;BME280;66430;50.182;11.704;2023-03-01T10:42:32;95230.90;;;-1.65;45.26
77366;BME280;66430;50.182;11.704;2023-03-01T10:44:56;95223.07;;;-1.71;44.92
77366;BME280;66430;50.182;11.704;2023-03-01T10:47:23;95232.40;;;-1.35;44.36
77366;BME280;66430;50.182;11.704;2023-03-01T10:49:55;95226.88;;;-1.34;44.09
77366;BME280;66430;50.182;11.704;2023-03-01T10:52:18;95221.39;;;-1.03;43.94
77366;BME280;66430;50.182;11.704;2023-03-01T10:59:31;95230.71;;;-0.77;43.41
77366;BME280;66430;50.182;11.704;2023-03-01T11:02:16;95216.23;;;-0.91;43.54
77366;BME280;66430;50.182;11.704;2023-03-01T11:04:20;95209.93;;;-0.09;43.62
77366;BME280;66430;50.182;11.704;2023-03-01T11:06:57;95213.47;;;-0.39;42.93
77366;BME280;66430;50.182;11.704;2023-03-01T11:09:15;95200.24;;;-0.38;43.61
77366;BME280;66430;50.182;11.704;2023-03-01T11:11:36;95205.13;;;-0.46;42.94
77366;BME280;66430;50.182;11.704;2023-03-01T11:14:06;95190.18;;;-0.24;42.13
77366;BME280;66430;50.182;11.704;2023-03-01T11:16:31;95196.78;;;-0.08;42.08
77366;BME280;66430;50.182;11.704;2023-03-01T11:21:19;95194.16;;;0.31;40.68
77366;BME280;66430;50.182;11.704;2023-03-01T11:23:46;95201.38;;;0.33;41.16
77366;BME280;66430;50.182;11.704;2023-03-01T11:26:11;95188.99;;;0.79;40.43
77366;BME280;66430;50.182;11.704;2023-03-01T11:28:39;95179.71;;;0.86;39.37
77366;BME280;66430;50.182;11.704;2023-03-01T11:31:04;95183.67;;;0.95;39.14
77366;BME280;66430;50.182;11.704;2023-03-01T11:33:35;95176.99;;;0.61;40.73
77366;BME280;66430;50.182;11.704;2023-03-01T11:35:57;95174.64;;;0.38;39.58
77366;BME280;66430;50.182;11.704;2023-03-01T11:38:22;95173.18;;;-0.02;39.79
77366;BME280;66430;50.182;11.704;2023-03-01T11:40:47;95173.86;;;0.44;39.89
77366;BME280;66430;50.182;11.704;2023-03-01T11:43:16;95178.50;;;-0.14;40.24
77366;BME280;66430;50.182;11.704;2023-03-01T11:45:43;95173.80;;;-0.14;40.25
77366;BME280;66430;50.182;11.704;2023-03-01T11:48:11;95171.55;;;0.31;40.10
77366;BME280;66430;50.182;11.704;2023-03-01T11:50:30;95184.12;;;0.28;39.49
77366;BME280;66430;50.182;11.704;2023-03-01T11:53:00;95171.53;;;0.13;39.98
77366;BME280;66430;50.182;11.704;2023-03-01T11:55:29;95170.30;;;0.24;39.79
77366;BME280;66430;50.182;11.704;2023-03-01T11:57:54;95173.92;;;0.36;39.01
77366;BME280;66430;50.182;11.704;2023-03-01T12:00:17;95163.61;;;0.64;37.92
77366;BME280;66430;50.182;11.704;2023-03-01T12:02:49;95166.79;;;0.85;39.06
77366;BME280;66430;50.182;11.704;2023-03-01T12:05:16;95162.68;;;1.12;39.05
77366;BME280;66430;50.182;11.704;2023-03-01T12:07:30;95170.36;;;1.75;37.12
77366;BME280;66430;50.182;11.704;2023-03-01T12:09:59;95166.92;;;1.36;37.22
77366;BME280;66430;50.182;11.704;2023-03-01T12:12:27;95161.46;;;0.83;37.31
77366;BME280;66430;50.182;11.704;2023-03-01T12:17:16;95140.61;;;1.51;37.33
77366;BME280;66430;50.182;11.704;2023-03-01T12:19:42;95137.91;;;1.65;38.19
77366;BME280;66430;50.182;11.704;2023-03-01T12:22:07;95140.10;;;1.77;37.84
77366;BME280;66430;50.182;11.704;2023-03-01T12:26:59;95137.05;;;1.77;37.93
77366;BME280;66430;50.182;11.704;2023-03-01T12:29:23;95141.25;;;1.82;37.18
77366;BME280;66430;50.182;11.704;2023-03-01T12:31:48;95142.91;;;1.96;37.72
77366;BME280;66430;50.182;11.704;2023-03-01T12:34:11;95150.84;;;1.61;37.86
77366;BME280;66430;50.182;11.704;2023-03-01T12:36:44;95145.01;;;1.14;38.78
77366;BME280;66430;50.182;11.704;2023-03-01T12:39:03;95141.92;;;1.13;39.00
77366;BME280;66430;50.182;11.704;2023-03-01T12:41:31;95134.55;;;1.22;39.04
77366;BME280;66430;50.182;11.704;2023-03-01T12:43:56;95134.19;;;1.72;38.72
77366;BME280;66430;50.182;11.704;2023-03-01T12:46:20;95139.74;;;1.57;38.81
77366;BME280;66430;50.182;11.704;2023-03-01T12:48:45;95136.45;;;2.00;39.28
77366;BME280;66430;50.182;11.704;2023-03-01T12:51:06;95141.39;;;1.65;37.37
77366;BME280;66430;50.182;11.704;2023-03-01T12:53:28;95133.14;;;2.00;37.70